createdAt,value
2019-01-15T00:01:44.635Z,9.10
2019-01-15T00:04:13.601Z,9.60
2019-01-15T00:06:42.666Z,9.33
2019-01-15T00:09:11.767Z,8.37
2019-01-15T00:11:40.831Z,8.27
2019-01-15T00:14:09.877Z,8.03
2019-01-15T00:16:38.991Z,8.27
2019-01-15T00:19:08.066Z,8.40
2019-01-15T00:21:37.090Z,8.03
2019-01-15T00:24:06.080Z,7.83
2019-01-15T00:26:35.115Z,7.13
2019-01-15T00:29:04.118Z,7.13
2019-01-15T00:31:33.157Z,6.77
2019-01-15T00:34:02.229Z,7.20
2019-01-15T00:36:31.292Z,6.53
2019-01-15T00:39:00.346Z,6.50
2019-01-15T00:41:29.430Z,5.50
2019-01-15T00:43:58.450Z,5.63
2019-01-15T00:46:27.441Z,6.17
2019-01-15T00:48:56.474Z,6.03
2019-01-15T00:51:25.512Z,5.43
2019-01-15T00:53:54.558Z,5.40
2019-01-15T00:56:23.514Z,5.27
2019-01-15T00:58:52.603Z,4.87
2019-01-15T01:01:21.647Z,4.93
2019-01-15T01:03:50.714Z,5.33
2019-01-15T01:06:19.753Z,4.50
2019-01-15T01:08:48.810Z,4.40
2019-01-15T01:11:18.047Z,4.43
2019-01-15T01:13:47.075Z,4.53
2019-01-15T01:16:16.051Z,4.07
2019-01-15T01:18:45.117Z,4.00
2019-01-15T01:21:14.120Z,3.77
2019-01-15T01:23:43.148Z,4.10
2019-01-15T01:26:12.220Z,3.50
2019-01-15T01:28:41.252Z,3.97
2019-01-15T01:31:10.359Z,4.03
2019-01-15T01:33:39.402Z,3.67
2019-01-15T01:36:08.422Z,3.50
2019-01-15T01:38:37.409Z,3.60
2019-01-15T01:41:06.483Z,3.63
2019-01-15T01:43:35.522Z,3.20
2019-01-15T01:46:04.600Z,3.57
2019-01-15T01:48:33.631Z,3.67
2019-01-15T01:51:02.658Z,2.90
2019-01-15T01:53:31.706Z,2.60
2019-01-15T01:56:00.745Z,3.10
2019-01-15T01:58:29.750Z,2.90
2019-01-15T02:00:58.757Z,2.80
2019-01-15T02:03:27.770Z,2.43
2019-01-15T02:05:56.904Z,2.87
2019-01-15T02:08:25.954Z,2.60
2019-01-15T02:10:56.163Z,2.90
2019-01-15T02:13:25.201Z,2.20
2019-01-15T02:15:54.250Z,2.37
2019-01-15T02:18:23.286Z,2.50
2019-01-15T02:20:52.358Z,2.50
2019-01-15T02:23:21.392Z,2.43
2019-01-15T02:25:50.438Z,2.10
2019-01-15T02:28:19.397Z,2.40
2019-01-15T02:30:48.602Z,2.40
2019-01-15T02:33:17.584Z,2.00
2019-01-15T02:35:46.640Z,2.03
2019-01-15T02:38:15.711Z,2.20
2019-01-15T02:40:44.780Z,2.40
2019-01-15T02:43:13.927Z,1.90
2019-01-15T02:45:42.999Z,2.03
2019-01-15T02:48:12.040Z,2.10
2019-01-15T02:50:41.087Z,1.83
2019-01-15T02:53:10.088Z,1.73
2019-01-15T02:55:39.102Z,1.50
2019-01-15T02:58:08.075Z,1.80
2019-01-15T03:00:37.138Z,1.70
2019-01-15T03:03:06.177Z,1.50
2019-01-15T03:05:35.230Z,1.70
2019-01-15T03:08:04.285Z,1.57
2019-01-15T03:10:33.272Z,1.60
2019-01-15T03:13:02.368Z,1.60
2019-01-15T03:15:31.415Z,1.90
2019-01-15T03:18:00.463Z,1.30
2019-01-15T03:20:29.549Z,1.60
2019-01-15T03:22:58.572Z,1.30
2019-01-15T03:25:27.637Z,1.60
2019-01-15T03:27:56.659Z,1.43
2019-01-15T03:30:26.882Z,1.50
2019-01-15T03:32:55.975Z,1.37
2019-01-15T03:35:24.999Z,1.53
2019-01-15T03:37:53.992Z,1.20
2019-01-15T03:40:26.770Z,1.47
2019-01-15T03:43:03.590Z,1.37
2019-01-15T03:45:26.614Z,1.43
2019-01-15T03:47:55.695Z,1.10
2019-01-15T03:50:25.861Z,1.37
2019-01-15T03:52:54.909Z,1.30
2019-01-15T03:55:23.964Z,1.67
2019-01-15T03:57:53.003Z,1.07
2019-01-15T04:00:23.931Z,1.30
2019-01-15T04:02:53.144Z,1.30
2019-01-15T04:05:22.281Z,1.47
2019-01-15T04:07:55.194Z,1.20
2019-01-15T04:10:24.248Z,1.63
2019-01-15T04:12:53.304Z,1.20
2019-01-15T04:15:22.446Z,1.10
2019-01-15T04:17:51.488Z,1.20
2019-01-15T04:20:20.515Z,1.10
2019-01-15T04:22:49.499Z,1.20
2019-01-15T04:25:18.612Z,1.30
2019-01-15T04:27:47.674Z,1.20
2019-01-15T04:30:19.048Z,1.20
2019-01-15T04:32:48.128Z,1.60
2019-01-15T04:35:18.663Z,1.30
2019-01-15T04:37:47.698Z,1.47
2019-01-15T04:40:18.720Z,1.23
2019-01-15T04:42:47.776Z,1.20
2019-01-15T04:45:18.230Z,1.20
2019-01-15T04:47:47.186Z,1.30
2019-01-15T04:50:16.348Z,1.17
2019-01-15T04:52:48.811Z,1.20
2019-01-15T04:55:17.873Z,1.00
2019-01-15T04:57:46.899Z,1.47
2019-01-15T05:00:17.352Z,1.50
2019-01-15T05:02:46.574Z,1.33
2019-01-15T05:05:15.542Z,0.90
2019-01-15T05:07:44.604Z,1.00
2019-01-15T05:10:14.077Z,1.20
2019-01-15T05:12:43.142Z,1.27
2019-01-15T05:15:13.390Z,1.00
2019-01-15T05:17:42.478Z,1.20
2019-01-15T05:20:12.901Z,1.30
2019-01-15T05:22:41.952Z,1.03
2019-01-15T05:25:14.944Z,1.20
2019-01-15T05:27:44.012Z,1.57
2019-01-15T05:30:19.472Z,1.20
2019-01-15T05:32:48.508Z,1.60
2019-01-15T05:35:17.664Z,3.00
2019-01-15T05:37:47.613Z,2.50
2019-01-15T05:40:17.612Z,2.30
2019-01-15T05:42:46.680Z,2.53
2019-01-15T05:45:21.773Z,1.93
2019-01-15T05:47:52.367Z,2.23
2019-01-15T05:50:30.248Z,2.20
2019-01-15T05:52:59.280Z,2.07
2019-01-15T05:55:28.314Z,2.10
2019-01-15T05:57:57.382Z,1.83
2019-01-15T06:00:26.442Z,2.33
2019-01-15T06:02:55.522Z,2.20
2019-01-15T06:05:24.586Z,1.70
2019-01-15T06:07:53.603Z,2.30
2019-01-15T06:10:22.554Z,2.13
2019-01-15T06:12:51.542Z,2.90
2019-01-15T06:15:20.580Z,2.20
2019-01-15T06:17:49.838Z,2.43
2019-01-15T06:20:20.265Z,2.00
2019-01-15T06:22:50.797Z,2.20
2019-01-15T06:25:19.772Z,2.43
2019-01-15T06:27:48.843Z,2.00
2019-01-15T06:30:17.928Z,2.17
2019-01-15T06:32:46.995Z,2.10
2019-01-15T06:35:16.113Z,2.30
2019-01-15T06:37:45.250Z,2.90
2019-01-15T06:40:14.481Z,2.20
2019-01-15T06:42:43.602Z,2.27
2019-01-15T06:45:15.518Z,2.07
2019-01-15T06:47:44.642Z,2.57
2019-01-15T06:50:14.210Z,3.37
2019-01-15T06:52:43.330Z,2.53
2019-01-15T06:55:14.169Z,2.50
2019-01-15T06:57:43.240Z,3.30
2019-01-15T07:00:17.862Z,2.63
2019-01-15T07:02:46.993Z,2.43
2019-01-15T07:05:16.192Z,2.10
2019-01-15T07:07:45.250Z,2.23
2019-01-15T07:10:27.883Z,2.43
2019-01-15T07:12:56.953Z,2.20
2019-01-15T07:15:26.010Z,2.63
2019-01-15T07:17:55.051Z,1.90
2019-01-15T07:20:25.272Z,2.47
2019-01-15T07:22:54.309Z,2.50
2019-01-15T07:25:23.470Z,2.40
2019-01-15T07:27:52.544Z,2.27
2019-01-15T07:30:37.704Z,2.03
2019-01-15T07:33:07.746Z,2.00
2019-01-15T07:35:36.796Z,2.83
2019-01-15T07:38:05.864Z,2.47
2019-01-15T07:40:36.133Z,2.00
2019-01-15T07:43:05.198Z,1.87
2019-01-15T07:45:34.147Z,2.13
2019-01-15T07:48:03.120Z,2.20
2019-01-15T07:50:32.164Z,1.67
2019-01-15T07:53:01.290Z,1.90
2019-01-15T07:55:30.260Z,2.10
2019-01-15T07:57:59.375Z,2.17
2019-01-15T08:00:28.638Z,1.83
2019-01-15T08:02:57.661Z,1.83
2019-01-15T08:05:26.798Z,1.70
2019-01-15T08:07:55.786Z,1.70
2019-01-15T08:10:24.824Z,1.60
2019-01-15T08:12:53.866Z,1.80
2019-01-15T08:15:23.862Z,2.10
2019-01-15T08:17:52.920Z,1.93
2019-01-15T08:20:21.865Z,1.70
2019-01-15T08:22:50.840Z,2.03
2019-01-15T08:25:19.901Z,1.60
2019-01-15T08:27:48.966Z,2.00
2019-01-15T08:30:20.655Z,1.77
2019-01-15T08:32:49.730Z,1.70
2019-01-15T08:35:18.764Z,1.53
2019-01-15T08:37:47.819Z,1.80
2019-01-15T08:40:16.911Z,1.67
2019-01-15T08:42:45.970Z,1.83
2019-01-15T08:45:15.310Z,1.50
2019-01-15T08:47:46.810Z,1.30
2019-01-15T08:50:17.671Z,1.57
2019-01-15T08:52:46.783Z,1.77
2019-01-15T08:55:15.862Z,1.60
2019-01-15T08:57:44.918Z,1.20
2019-01-15T09:00:14.151Z,1.30
2019-01-15T09:02:43.186Z,1.67
2019-01-15T09:05:12.230Z,1.67
2019-01-15T09:07:41.286Z,1.63
2019-01-15T09:10:11.390Z,1.23
2019-01-15T09:12:40.443Z,1.33
2019-01-15T09:15:10.714Z,1.40
2019-01-15T09:17:39.793Z,1.43
2019-01-15T09:20:11.824Z,1.53
2019-01-15T09:22:40.879Z,1.80
2019-01-15T09:25:09.934Z,1.87
2019-01-15T09:27:38.979Z,1.27
2019-01-15T09:30:11.090Z,1.70
2019-01-15T09:32:40.096Z,1.50
2019-01-15T09:35:09.151Z,1.53
2019-01-15T09:37:38.955Z,1.60
2019-01-15T09:40:09.286Z,1.50
2019-01-15T09:42:38.425Z,1.40
2019-01-15T09:45:10.095Z,1.70
2019-01-15T09:47:41.063Z,1.30
2019-01-15T09:50:12.109Z,1.47
2019-01-15T09:52:41.410Z,1.50
2019-01-15T09:55:10.474Z,1.60
2019-01-15T09:57:39.511Z,1.70
2019-01-15T10:00:08.618Z,1.67
2019-01-15T10:02:37.665Z,1.93
2019-01-15T10:05:06.744Z,1.50
2019-01-15T10:07:35.811Z,1.30
2019-01-15T10:10:06.131Z,1.60
2019-01-15T10:12:35.219Z,1.63
2019-01-15T10:15:05.637Z,1.50
2019-01-15T10:17:34.669Z,1.17
2019-01-15T10:20:03.931Z,1.40
2019-01-15T10:22:33.008Z,1.30
2019-01-15T10:25:02.438Z,1.20
2019-01-15T10:27:31.557Z,1.40
2019-01-15T10:30:02.933Z,1.57
2019-01-15T10:33:03.205Z,1.33
2019-01-15T10:35:57.873Z,1.37
2019-01-15T10:38:28.297Z,1.30
2019-01-15T10:40:58.333Z,1.40
2019-01-15T10:43:28.618Z,2.00
2019-01-15T10:45:57.591Z,1.53
2019-01-15T10:48:26.660Z,1.40
2019-01-15T10:50:55.727Z,1.30
2019-01-15T10:53:26.497Z,1.17
2019-01-15T10:55:55.597Z,1.17
2019-01-15T10:58:24.739Z,1.20
2019-01-15T11:00:53.762Z,1.03
2019-01-15T11:03:22.826Z,1.30
2019-01-15T11:05:51.949Z,1.50
2019-01-15T11:08:21.001Z,1.03
2019-01-15T11:10:50.040Z,1.20
2019-01-15T11:13:19.108Z,1.50
2019-01-15T11:15:48.175Z,1.00
2019-01-15T11:18:17.238Z,1.40
2019-01-15T11:20:46.270Z,1.47
2019-01-15T11:23:15.276Z,1.30
2019-01-15T11:25:44.384Z,1.30
2019-01-15T11:28:13.449Z,1.17
2019-01-15T11:30:42.475Z,1.20
2019-01-15T11:33:11.431Z,1.43
2019-01-15T11:35:40.474Z,1.30
2019-01-15T11:38:09.590Z,1.30
2019-01-15T11:40:38.701Z,1.23
2019-01-15T11:43:07.772Z,1.10
2019-01-15T11:45:36.806Z,1.10
2019-01-15T11:48:06.363Z,1.07
2019-01-15T11:50:35.343Z,1.33
2019-01-15T11:53:04.382Z,1.20
2019-01-15T11:55:33.382Z,1.23
2019-01-15T11:58:02.518Z,1.30
2019-01-15T12:00:44.686Z,1.07
2019-01-15T12:03:35.690Z,1.20
2019-01-15T12:06:22.916Z,0.93
2019-01-15T12:09:16.820Z,1.10
2019-01-15T12:12:01.424Z,1.20
2019-01-15T12:14:48.196Z,1.23
2019-01-15T12:17:48.590Z,0.73
2019-01-15T12:20:51.865Z,1.00
2019-01-15T12:23:42.705Z,1.23
2019-01-15T12:26:48.753Z,1.27
2019-01-15T12:29:31.727Z,1.20
2019-01-15T12:32:18.193Z,1.00
2019-01-15T12:35:05.059Z,1.50
2019-01-15T12:37:51.873Z,1.20
2019-01-15T12:40:38.926Z,1.03
2019-01-15T12:44:09.886Z,1.20
2019-01-15T12:46:56.661Z,0.80
2019-01-15T12:49:55.079Z,1.00
2019-01-15T12:52:53.346Z,1.10
2019-01-15T12:55:39.532Z,0.97
2019-01-15T12:58:30.842Z,1.00
2019-01-15T13:01:22.005Z,1.30
2019-01-15T13:04:02.730Z,1.07
2019-01-15T13:06:41.937Z,0.90
2019-01-15T13:09:42.079Z,1.20
2019-01-15T13:12:26.836Z,0.70
2019-01-15T13:15:14.945Z,0.80
2019-01-15T13:18:01.620Z,0.93
2019-01-15T13:20:58.916Z,0.80
2019-01-15T13:23:47.011Z,1.00
2019-01-15T13:26:41.568Z,0.90
2019-01-15T13:29:19.899Z,0.93
2019-01-15T13:32:13.780Z,0.80
2019-01-15T13:34:56.082Z,0.80
2019-01-15T13:37:41.252Z,1.10
2019-01-15T13:40:45.469Z,1.03
2019-01-15T13:43:32.497Z,0.87
2019-01-15T13:46:07.338Z,1.20
2019-01-15T13:48:54.139Z,1.00
2019-01-15T13:51:41.077Z,0.90
2019-01-15T13:54:38.183Z,1.00
2019-01-15T13:57:35.167Z,0.80
2019-01-15T14:00:42.363Z,0.90
2019-01-15T14:03:36.309Z,0.80
2019-01-15T14:06:23.017Z,1.40
2019-01-15T14:09:17.153Z,0.90
2019-01-15T14:11:58.279Z,0.87
2019-01-15T14:14:46.389Z,1.00
2019-01-15T14:17:31.683Z,1.00
2019-01-15T14:20:37.769Z,1.07
2019-01-15T14:23:25.512Z,1.17
2019-01-15T14:26:13.009Z,1.00
2019-01-15T14:29:13.020Z,1.77
2019-01-15T14:32:03.903Z,1.03
2019-01-15T14:34:50.683Z,1.10
2019-01-15T14:37:38.903Z,1.03
2019-01-15T14:40:28.697Z,0.97
2019-01-15T14:43:32.143Z,1.07
2019-01-15T14:46:28.933Z,0.90
2019-01-15T14:49:10.698Z,0.80
2019-01-15T14:51:48.328Z,0.80
2019-01-15T14:54:45.661Z,1.13
2019-01-15T14:57:32.317Z,0.87
2019-01-15T15:00:11.827Z,1.03
2019-01-15T15:02:59.928Z,1.20
2019-01-15T15:06:02.929Z,0.90
2019-01-15T15:08:53.506Z,0.83
2019-01-15T15:11:44.385Z,1.20
2019-01-15T15:14:35.547Z,0.90
2019-01-15T15:17:22.538Z,0.70
2019-01-15T15:20:13.634Z,0.90
2019-01-15T15:22:56.218Z,0.87
2019-01-15T15:25:47.088Z,1.20
2019-01-15T15:28:34.040Z,1.00
2019-01-15T15:31:19.339Z,1.20
2019-01-15T15:34:06.120Z,1.03
2019-01-15T15:37:03.041Z,0.83
2019-01-15T15:39:47.890Z,0.97
2019-01-15T15:42:35.354Z,0.70
2019-01-15T15:45:19.366Z,0.97
2019-01-15T15:48:07.462Z,0.93
2019-01-15T15:50:58.498Z,0.97
2019-01-15T15:53:46.546Z,0.70
2019-01-15T15:56:40.573Z,1.00
2019-01-15T15:59:27.325Z,2.33
2019-01-15T16:02:18.402Z,1.97
2019-01-15T16:05:09.053Z,1.63
2019-01-15T16:07:52.109Z,1.50
2019-01-15T16:10:55.104Z,1.40
2019-01-15T16:13:51.950Z,2.60
2019-01-15T16:16:42.952Z,1.57
2019-01-15T16:19:29.586Z,2.07
2019-01-15T16:22:23.852Z,2.43
2019-01-15T16:25:07.282Z,3.03
2019-01-15T16:28:07.495Z,1.53
2019-01-15T16:30:54.111Z,2.07
2019-01-15T16:33:50.799Z,2.67
2019-01-15T16:36:38.840Z,1.77
2019-01-15T16:39:25.041Z,1.40
2019-01-15T16:42:16.189Z,1.50
2019-01-15T16:45:02.970Z,1.50
2019-01-15T16:47:49.726Z,2.07
2019-01-15T16:50:41.485Z,1.17
2019-01-15T16:53:28.350Z,1.97
2019-01-15T16:56:19.445Z,1.47
2019-01-15T16:59:10.705Z,1.67
2019-01-15T17:01:52.941Z,1.87
2019-01-15T17:04:43.791Z,2.17
2019-01-15T17:07:40.977Z,2.03
2019-01-15T17:10:31.864Z,2.03
2019-01-15T17:13:25.774Z,2.37
2019-01-15T17:16:13.815Z,2.20
2019-01-15T17:18:57.661Z,2.40
2019-01-15T17:21:57.681Z,2.37
2019-01-15T17:24:44.507Z,1.97
2019-01-15T17:27:32.582Z,1.80
2019-01-15T17:30:14.529Z,2.47
2019-01-15T17:33:01.422Z,1.53
2019-01-15T17:35:52.539Z,2.53
2019-01-15T17:38:34.785Z,1.90
2019-01-15T17:41:21.400Z,1.97
2019-01-15T17:44:07.694Z,1.30
2019-01-15T17:47:04.722Z,2.37
2019-01-15T17:50:07.738Z,3.43
2019-01-15T17:53:01.362Z,4.07
2019-01-15T17:55:48.368Z,4.23
2019-01-15T17:58:27.742Z,3.50
2019-01-15T18:01:11.204Z,3.13
2019-01-15T18:03:57.786Z,2.63
2019-01-15T18:06:52.085Z,3.30
2019-01-15T18:09:38.694Z,3.13
2019-01-15T18:12:25.354Z,2.70
2019-01-15T18:15:19.491Z,2.33
2019-01-15T18:17:59.759Z,2.73
2019-01-15T18:20:46.290Z,3.13
2019-01-15T18:23:46.481Z,2.53
2019-01-15T18:26:43.641Z,2.73
2019-01-15T18:29:23.787Z,3.23
2019-01-15T18:32:14.667Z,2.73
2019-01-15T18:34:50.834Z,2.23
2019-01-15T18:37:35.679Z,2.90
2019-01-15T18:40:25.253Z,2.93
2019-01-15T18:43:11.867Z,2.60
2019-01-15T18:45:52.138Z,2.60
2019-01-15T18:48:52.419Z,2.70
2019-01-15T18:51:47.066Z,2.20
2019-01-15T18:54:38.410Z,2.30
2019-01-15T18:57:25.119Z,2.23
2019-01-15T19:00:31.506Z,2.83
2019-01-15T19:03:18.377Z,2.80
2019-01-15T19:06:24.682Z,2.17
2019-01-15T19:09:15.347Z,1.93
2019-01-15T19:12:09.128Z,1.87
2019-01-15T19:15:03.134Z,2.13
2019-01-15T19:17:49.590Z,2.07
2019-01-15T19:20:40.720Z,1.67
2019-01-15T19:23:28.808Z,1.77
2019-01-15T19:26:09.969Z,2.17
2019-01-15T19:29:05.703Z,2.10
2019-01-15T19:31:53.140Z,2.33
2019-01-15T19:34:39.718Z,2.00
2019-01-15T19:37:28.786Z,1.77
2019-01-15T19:40:28.796Z,1.77
2019-01-15T19:43:09.345Z,1.93
2019-01-15T19:46:00.250Z,2.10
2019-01-15T19:48:47.065Z,1.50
2019-01-15T19:51:47.444Z,1.70
2019-01-15T19:54:44.526Z,1.50
2019-01-15T19:57:35.356Z,2.00
2019-01-15T20:00:27.141Z,1.80
2019-01-15T20:03:11.244Z,1.77
2019-01-15T20:06:08.588Z,1.83
2019-01-15T20:08:55.200Z,1.70
2019-01-15T20:11:37.397Z,1.37
2019-01-15T20:14:34.585Z,1.30
2019-01-15T20:17:19.654Z,2.00
2019-01-15T20:20:19.921Z,1.70
2019-01-15T20:23:14.200Z,1.60
2019-01-15T20:26:07.226Z,1.47
2019-01-15T20:28:53.984Z,1.80
2019-01-15T20:31:33.220Z,1.80
2019-01-15T20:34:20.064Z,1.87
2019-01-15T20:37:23.492Z,1.80
2019-01-15T20:40:18.614Z,1.70
2019-01-15T20:42:58.023Z,1.70
2019-01-15T20:45:37.062Z,1.23
2019-01-15T20:48:28.431Z,1.37
2019-01-15T20:51:15.141Z,1.80
2019-01-15T20:54:09.654Z,1.17
2019-01-15T20:57:03.077Z,1.37
2019-01-15T20:59:59.938Z,1.60
2019-01-15T21:02:48.737Z,1.57
2019-01-15T21:05:40.938Z,1.53
2019-01-15T21:08:21.014Z,1.47
2019-01-15T21:11:07.077Z,1.50
2019-01-15T21:13:53.477Z,0.87
2019-01-15T21:16:40.263Z,1.37
2019-01-15T21:19:28.363Z,1.30
2019-01-15T21:22:14.791Z,1.37
2019-01-15T21:25:14.900Z,1.17
2019-01-15T21:28:01.661Z,1.30
2019-01-15T21:30:50.564Z,1.30
2019-01-15T21:33:38.455Z,1.13
2019-01-15T21:36:20.939Z,1.27
2019-01-15T21:39:12.465Z,1.07
2019-01-15T21:42:09.018Z,1.23
2019-01-15T21:45:03.869Z,1.90
2019-01-15T21:47:50.802Z,1.90
2019-01-15T21:50:40.347Z,1.47
2019-01-15T21:53:26.734Z,1.33
2019-01-15T21:56:13.285Z,1.20
2019-01-15T21:59:07.028Z,1.30
2019-01-15T22:01:45.494Z,1.17
2019-01-15T22:04:41.114Z,1.20
2019-01-15T22:07:27.966Z,1.33
2019-01-15T22:10:14.587Z,1.13
2019-01-15T22:13:18.086Z,1.10
2019-01-15T22:16:08.807Z,1.40
2019-01-15T22:19:05.866Z,1.23
2019-01-15T22:21:53.968Z,1.00
2019-01-15T22:24:47.885Z,1.00
2019-01-15T22:27:38.762Z,1.60
2019-01-15T22:30:27.029Z,1.10
2019-01-15T22:33:12.969Z,1.10
2019-01-15T22:36:13.099Z,1.20
2019-01-15T22:39:16.339Z,1.33
2019-01-15T22:42:16.231Z,1.03
2019-01-15T22:45:02.386Z,0.90
2019-01-15T22:48:05.702Z,1.20
2019-01-15T22:50:48.138Z,1.30
2019-01-15T22:53:34.861Z,1.07
2019-01-15T22:56:13.685Z,0.90
2019-01-15T22:59:01.198Z,1.33
2019-01-15T23:01:44.567Z,0.70
2019-01-15T23:04:31.542Z,1.50
2019-01-15T23:07:19.664Z,1.10
2019-01-15T23:10:13.731Z,0.97
2019-01-15T23:13:01.418Z,0.90
2019-01-15T23:15:36.777Z,0.90
2019-01-15T23:18:30.773Z,1.20
2019-01-15T23:21:31.163Z,0.80
2019-01-15T23:24:19.187Z,1.00
2019-01-15T23:27:06.629Z,0.90
2019-01-15T23:29:53.386Z,0.80
2019-01-15T23:32:41.451Z,1.17
2019-01-15T23:35:25.965Z,0.80
2019-01-15T23:38:26.265Z,1.10
2019-01-15T23:41:17.398Z,1.03
2019-01-15T23:44:17.224Z,0.90
2019-01-15T23:46:54.215Z,0.97
2019-01-15T23:49:35.659Z,1.07
2019-01-15T23:52:36.159Z,0.90
2019-01-15T23:55:33.400Z,1.03
2019-01-15T23:58:27.380Z,1.20
